sensor_id;sensor_type;location;lat;lon;timestamp;P1;durP1;ratioP1;P2;durP2;ratioP2
63320;SDS011;49449;48.800;9.534;2023-08-01T00:00:47;5.63;;;3.38;;
63320;SDS011;49449;48.800;9.534;2023-08-01T00:03:15;3.60;;;3.05;;
63320;SDS011;49449;48.800;9.534;2023-08-01T00:05:44;4.38;;;3.42;;
63320;SDS011;49449;48.800;9.534;2023-08-01T00:08:13;3.58;;;2.83;;
63320;SDS011;49449;48.800;9.534;2023-08-01T00:10:41;4.38;;;2.70;;
63320;SDS011;49449;48.800;9.534;2023-08-01T00:13:09;4.68;;;3.28;;
63320;SDS011;49449;48.800;9.534;2023-08-01T00:15:37;3.58;;;2.70;;
63320;SDS011;49449;48.800;9.534;2023-08-01T00:18:05;4.43;;;3.15;;
63320;SDS011;49449;48.800;9.534;2023-08-01T00:20:33;5.25;;;3.50;;
63320;SDS011;49449;48.800;9.534;2023-08-01T00:23:02;4.22;;;3.28;;
63320;SDS011;49449;48.800;9.534;2023-08-01T00:25:30;4.60;;;3.63;;
63320;SDS011;49449;48.800;9.534;2023-08-01T00:27:58;4.07;;;3.15;;
63320;SDS011;49449;48.800;9.534;2023-08-01T00:30:25;3.55;;;3.17;;
63320;SDS011;49449;48.800;9.534;2023-08-01T00:32:53;4.40;;;3.17;;
63320;SDS011;49449;48.800;9.534;2023-08-01T00:35:21;4.18;;;3.05;;
63320;SDS011;49449;48.800;9.534;2023-08-01T00:37:49;4.38;;;2.78;;
63320;SDS011;49449;48.800;9.534;2023-08-01T00:40:18;3.63;;;2.78;;
63320;SDS011;49449;48.800;9.534;2023-08-01T00:42:46;3.83;;;3.03;;
63320;SDS011;49449;48.800;9.534;2023-08-01T00:45:15;5.22;;;2.95;;
63320;SDS011;49449;48.800;9.534;2023-08-01T00:47:42;4.93;;;3.38;;
63320;SDS011;49449;48.800;9.534;2023-08-01T00:50:10;4.28;;;3.22;;
63320;SDS011;49449;48.800;9.534;2023-08-01T00:52:38;3.85;;;3.00;;
63320;SDS011;49449;48.800;9.534;2023-08-01T00:55:07;3.60;;;2.88;;
63320;SDS011;49449;48.800;9.534;2023-08-01T00:57:37;4.30;;;3.45;;
63320;SDS011;49449;48.800;9.534;2023-08-01T01:00:05;4.65;;;3.20;;
63320;SDS011;49449;48.800;9.534;2023-08-01T01:02:34;4.25;;;2.85;;
63320;SDS011;49449;48.800;9.534;2023-08-01T01:05:03;4.18;;;2.85;;
63320;SDS011;49449;48.800;9.534;2023-08-01T01:07:31;4.85;;;3.25;;
63320;SDS011;49449;48.800;9.534;2023-08-01T01:09:59;3.67;;;2.72;;
63320;SDS011;49449;48.800;9.534;2023-08-01T01:12:27;5.15;;;3.30;;
63320;SDS011;49449;48.800;9.534;2023-08-01T01:14:56;3.58;;;2.60;;
63320;SDS011;49449;48.800;9.534;2023-08-01T01:17:24;3.70;;;2.78;;
63320;SDS011;49449;48.800;9.534;2023-08-01T01:19:52;5.43;;;3.20;;
63320;SDS011;49449;48.800;9.534;2023-08-01T01:22:21;5.72;;;3.08;;
63320;SDS011;49449;48.800;9.534;2023-08-01T01:24:49;3.97;;;3.13;;
63320;SDS011;49449;48.800;9.534;2023-08-01T01:27:19;4.20;;;2.90;;
63320;SDS011;49449;48.800;9.534;2023-08-01T01:29:47;8.10;;;3.72;;
63320;SDS011;49449;48.800;9.534;2023-08-01T01:32:16;5.28;;;3.08;;
63320;SDS011;49449;48.800;9.534;2023-08-01T01:34:45;3.40;;;2.80;;
63320;SDS011;49449;48.800;9.534;2023-08-01T01:37:13;3.55;;;3.10;;
63320;SDS011;49449;48.800;9.534;2023-08-01T01:39:42;3.75;;;3.20;;
63320;SDS011;49449;48.800;9.534;2023-08-01T01:42:10;4.47;;;3.25;;
63320;SDS011;49449;48.800;9.534;2023-08-01T01:44:39;4.15;;;2.65;;
63320;SDS011;49449;48.800;9.534;2023-08-01T01:47:07;4.95;;;3.47;;
63320;SDS011;49449;48.800;9.534;2023-08-01T01:49:36;4.40;;;3.00;;
63320;SDS011;49449;48.800;9.534;2023-08-01T01:52:04;5.07;;;3.40;;
63320;SDS011;49449;48.800;9.534;2023-08-01T01:54:32;5.45;;;3.28;;
63320;SDS011;49449;48.800;9.534;2023-08-01T01:57:01;3.47;;;2.97;;
63320;SDS011;49449;48.800;9.534;2023-08-01T01:59:29;4.97;;;2.83;;
63320;SDS011;49449;48.800;9.534;2023-08-01T02:01:57;4.43;;;3.13;;
63320;SDS011;49449;48.800;9.534;2023-08-01T02:04:26;5.38;;;3.15;;
63320;SDS011;49449;48.800;9.534;2023-08-01T02:06:53;5.25;;;3.38;;
63320;SDS011;49449;48.800;9.534;2023-08-01T02:09:21;7.45;;;3.20;;
63320;SDS011;49449;48.800;9.534;2023-08-01T02:11:49;3.80;;;2.80;;
63320;SDS011;49449;48.800;9.534;2023-08-01T02:14:18;3.28;;;2.83;;
63320;SDS011;49449;48.800;9.534;2023-08-01T02:16:46;4.88;;;3.05;;
63320;SDS011;49449;48.800;9.534;2023-08-01T02:19:14;4.57;;;3.60;;
63320;SDS011;49449;48.800;9.534;2023-08-01T02:21:42;3.80;;;2.88;;
63320;SDS011;49449;48.800;9.534;2023-08-01T02:24:09;4.72;;;3.20;;
63320;SDS011;49449;48.800;9.534;2023-08-01T02:26:37;4.43;;;3.65;;
63320;SDS011;49449;48.800;9.534;2023-08-01T02:29:05;4.32;;;3.42;;
63320;SDS011;49449;48.800;9.534;2023-08-01T02:31:34;5.15;;;3.30;;
63320;SDS011;49449;48.800;9.534;2023-08-01T02:34:02;5.47;;;3.20;;
63320;SDS011;49449;48.800;9.534;2023-08-01T02:36:30;4.43;;;3.22;;
63320;SDS011;49449;48.800;9.534;2023-08-01T02:38:58;3.72;;;3.22;;
63320;SDS011;49449;48.800;9.534;2023-08-01T02:41:26;4.78;;;3.20;;
63320;SDS011;49449;48.800;9.534;2023-08-01T02:43:53;4.85;;;3.00;;
63320;SDS011;49449;48.800;9.534;2023-08-01T02:46:21;4.82;;;3.65;;
63320;SDS011;49449;48.800;9.534;2023-08-01T02:48:50;4.03;;;3.00;;
63320;SDS011;49449;48.800;9.534;2023-08-01T02:51:18;5.38;;;3.92;;
63320;SDS011;49449;48.800;9.534;2023-08-01T02:53:46;3.85;;;3.08;;
63320;SDS011;49449;48.800;9.534;2023-08-01T02:56:14;3.85;;;3.10;;
63320;SDS011;49449;48.800;9.534;2023-08-01T02:58:41;3.90;;;3.50;;
63320;SDS011;49449;48.800;9.534;2023-08-01T03:01:09;5.07;;;3.45;;
63320;SDS011;49449;48.800;9.534;2023-08-01T03:03:38;5.45;;;4.15;;
63320;SDS011;49449;48.800;9.534;2023-08-01T03:06:07;4.43;;;3.55;;
63320;SDS011;49449;48.800;9.534;2023-08-01T03:08:35;3.63;;;3.25;;
63320;SDS011;49449;48.800;9.534;2023-08-01T03:11:03;5.00;;;3.47;;
63320;SDS011;49449;48.800;9.534;2023-08-01T03:13:31;4.50;;;3.70;;
63320;SDS011;49449;48.800;9.534;2023-08-01T03:15:58;4.75;;;3.03;;
63320;SDS011;49449;48.800;9.534;2023-08-01T03:18:26;4.53;;;3.30;;
63320;SDS011;49449;48.800;9.534;2023-08-01T03:20:54;3.70;;;3.30;;
63320;SDS011;49449;48.800;9.534;2023-08-01T03:23:23;4.45;;;3.25;;
63320;SDS011;49449;48.800;9.534;2023-08-01T03:25:51;4.28;;;3.22;;
63320;SDS011;49449;48.800;9.534;2023-08-01T03:28:18;4.05;;;3.22;;
63320;SDS011;49449;48.800;9.534;2023-08-01T03:30:46;3.75;;;3.00;;
63320;SDS011;49449;48.800;9.534;2023-08-01T03:33:16;4.35;;;3.20;;
63320;SDS011;49449;48.800;9.534;2023-08-01T03:35:44;5.45;;;3.40;;
63320;SDS011;49449;48.800;9.534;2023-08-01T03:38:11;4.18;;;3.00;;
63320;SDS011;49449;48.800;9.534;2023-08-01T03:40:41;5.75;;;3.53;;
63320;SDS011;49449;48.800;9.534;2023-08-01T03:43:09;5.32;;;3.28;;
63320;SDS011;49449;48.800;9.534;2023-08-01T03:45:36;4.25;;;3.33;;
63320;SDS011;49449;48.800;9.534;2023-08-01T03:48:04;4.03;;;3.47;;
63320;SDS011;49449;48.800;9.534;2023-08-01T03:50:32;4.25;;;3.20;;
63320;SDS011;49449;48.800;9.534;2023-08-01T03:53:00;3.53;;;2.95;;
63320;SDS011;49449;48.800;9.534;2023-08-01T03:55:27;5.13;;;2.85;;
63320;SDS011;49449;48.800;9.534;2023-08-01T03:57:56;5.70;;;3.17;;
63320;SDS011;49449;48.800;9.534;2023-08-01T04:00:24;4.13;;;3.20;;
63320;SDS011;49449;48.800;9.534;2023-08-01T04:02:58;6.97;;;3.83;;
63320;SDS011;49449;48.800;9.534;2023-08-01T04:05:27;4.15;;;2.72;;
63320;SDS011;49449;48.800;9.534;2023-08-01T04:07:56;5.03;;;3.42;;
63320;SDS011;49449;48.800;9.534;2023-08-01T04:10:24;3.72;;;3.08;;
63320;SDS011;49449;48.800;9.534;2023-08-01T04:12:52;3.83;;;2.97;;
63320;SDS011;49449;48.800;9.534;2023-08-01T04:15:21;5.00;;;3.42;;
63320;SDS011;49449;48.800;9.534;2023-08-01T04:17:48;5.05;;;3.40;;
63320;SDS011;49449;48.800;9.534;2023-08-01T04:20:16;4.47;;;3.25;;
63320;SDS011;49449;48.800;9.534;2023-08-01T04:22:44;4.45;;;3.35;;
63320;SDS011;49449;48.800;9.534;2023-08-01T04:25:12;3.95;;;3.00;;
63320;SDS011;49449;48.800;9.534;2023-08-01T04:27:40;4.38;;;3.35;;
63320;SDS011;49449;48.800;9.534;2023-08-01T04:30:07;4.90;;;3.03;;
63320;SDS011;49449;48.800;9.534;2023-08-01T04:32:37;4.03;;;3.50;;
63320;SDS011;49449;48.800;9.534;2023-08-01T04:35:05;6.10;;;3.65;;
63320;SDS011;49449;48.800;9.534;2023-08-01T04:37:33;4.28;;;3.30;;
63320;SDS011;49449;48.800;9.534;2023-08-01T04:40:01;4.75;;;3.17;;
63320;SDS011;49449;48.800;9.534;2023-08-01T04:42:30;7.28;;;3.55;;
63320;SDS011;49449;48.800;9.534;2023-08-01T04:44:58;4.53;;;3.28;;
63320;SDS011;49449;48.800;9.534;2023-08-01T04:47:26;4.68;;;3.53;;
63320;SDS011;49449;48.800;9.534;2023-08-01T04:49:55;4.72;;;2.67;;
63320;SDS011;49449;48.800;9.534;2023-08-01T04:52:22;3.95;;;2.97;;
63320;SDS011;49449;48.800;9.534;2023-08-01T04:54:50;5.75;;;3.00;;
63320;SDS011;49449;48.800;9.534;2023-08-01T04:57:18;4.00;;;3.17;;
63320;SDS011;49449;48.800;9.534;2023-08-01T04:59:46;5.55;;;3.22;;
63320;SDS011;49449;48.800;9.534;2023-08-01T05:02:13;4.43;;;3.20;;
63320;SDS011;49449;48.800;9.534;2023-08-01T05:04:41;3.45;;;2.95;;
63320;SDS011;49449;48.800;9.534;2023-08-01T05:07:10;3.38;;;2.80;;
63320;SDS011;49449;48.800;9.534;2023-08-01T05:09:38;5.07;;;3.00;;
63320;SDS011;49449;48.800;9.534;2023-08-01T05:12:06;3.75;;;2.78;;
63320;SDS011;49449;48.800;9.534;2023-08-01T05:14:35;4.68;;;3.58;;
63320;SDS011;49449;48.800;9.534;2023-08-01T05:17:03;3.67;;;2.70;;
63320;SDS011;49449;48.800;9.534;2023-08-01T05:19:31;4.90;;;2.85;;
63320;SDS011;49449;48.800;9.534;2023-08-01T05:21:59;5.90;;;3.08;;
63320;SDS011;49449;48.800;9.534;2023-08-01T05:24:28;3.42;;;3.10;;
63320;SDS011;49449;48.800;9.534;2023-08-01T05:26:56;4.13;;;2.97;;
63320;SDS011;49449;48.800;9.534;2023-08-01T05:29:23;4.70;;;3.22;;
63320;SDS011;49449;48.800;9.534;2023-08-01T05:31:51;4.22;;;2.88;;
63320;SDS011;49449;48.800;9.534;2023-08-01T05:34:19;3.88;;;2.95;;
63320;SDS011;49449;48.800;9.534;2023-08-01T05:36:47;6.25;;;3.22;;
63320;SDS011;49449;48.800;9.534;2023-08-01T05:39:15;3.85;;;3.17;;
63320;SDS011;49449;48.800;9.534;2023-08-01T05:41:44;6.20;;;3.25;;
63320;SDS011;49449;48.800;9.534;2023-08-01T05:44:12;4.65;;;3.38;;
63320;SDS011;49449;48.800;9.534;2023-08-01T05:46:39;3.20;;;2.70;;
63320;SDS011;49449;48.800;9.534;2023-08-01T05:49:07;5.47;;;3.70;;
63320;SDS011;49449;48.800;9.534;2023-08-01T05:51:35;3.10;;;2.58;;
63320;SDS011;49449;48.800;9.534;2023-08-01T05:54:03;4.18;;;3.10;;
63320;SDS011;49449;48.800;9.534;2023-08-01T05:56:31;3.58;;;2.83;;
63320;SDS011;49449;48.800;9.534;2023-08-01T05:59:00;4.82;;;2.80;;
63320;SDS011;49449;48.800;9.534;2023-08-01T06:01:28;5.03;;;2.95;;
63320;SDS011;49449;48.800;9.534;2023-08-01T06:03:56;4.32;;;2.90;;
63320;SDS011;49449;48.800;9.534;2023-08-01T06:06:23;4.60;;;2.90;;
63320;SDS011;49449;48.800;9.534;2023-08-01T06:08:51;3.47;;;2.90;;
63320;SDS011;49449;48.800;9.534;2023-08-01T06:11:19;4.65;;;3.03;;
63320;SDS011;49449;48.800;9.534;2023-08-01T06:13:47;6.13;;;3.50;;
63320;SDS011;49449;48.800;9.534;2023-08-01T06:16:16;4.20;;;3.20;;
63320;SDS011;49449;48.800;9.534;2023-08-01T06:18:44;6.28;;;3.20;;
63320;SDS011;49449;48.800;9.534;2023-08-01T06:21:11;4.28;;;3.17;;
63320;SDS011;49449;48.800;9.534;2023-08-01T06:23:39;4.30;;;2.80;;
63320;SDS011;49449;48.800;9.534;2023-08-01T06:26:07;4.97;;;3.17;;
63320;SDS011;49449;48.800;9.534;2023-08-01T06:28:35;4.28;;;3.22;;
63320;SDS011;49449;48.800;9.534;2023-08-01T06:31:03;4.57;;;3.13;;
63320;SDS011;49449;48.800;9.534;2023-08-01T06:33:32;4.05;;;3.20;;
63320;SDS011;49449;48.800;9.534;2023-08-01T06:36:00;4.53;;;2.90;;
63320;SDS011;49449;48.800;9.534;2023-08-01T06:38:28;4.85;;;3.30;;
63320;SDS011;49449;48.800;9.534;2023-08-01T06:40:56;4.20;;;3.70;;
63320;SDS011;49449;48.800;9.534;2023-08-01T06:43:24;3.28;;;2.92;;
63320;SDS011;49449;48.800;9.534;2023-08-01T06:45:51;4.35;;;3.40;;
63320;SDS011;49449;48.800;9.534;2023-08-01T06:48:19;4.97;;;3.40;;
63320;SDS011;49449;48.800;9.534;2023-08-01T06:50:48;5.80;;;3.10;;
63320;SDS011;49449;48.800;9.534;2023-08-01T06:53:16;3.42;;;3.08;;
63320;SDS011;49449;48.800;9.534;2023-08-01T06:55:44;4.70;;;3.38;;
63320;SDS011;49449;48.800;9.534;2023-08-01T06:58:12;5.65;;;3.17;;
63320;SDS011;49449;48.800;9.534;2023-08-01T07:00:39;5.35;;;3.67;;
63320;SDS011;49449;48.800;9.534;2023-08-01T07:03:07;4.45;;;3.30;;
63320;SDS011;49449;48.800;9.534;2023-08-01T07:05:35;3.85;;;2.97;;
63320;SDS011;49449;48.800;9.534;2023-08-01T07:08:04;6.43;;;3.80;;
63320;SDS011;49449;48.800;9.534;2023-08-01T07:10:34;5.30;;;3.38;;
63320;SDS011;49449;48.800;9.534;2023-08-01T07:13:02;4.00;;;3.40;;
63320;SDS011;49449;48.800;9.534;2023-08-01T07:15:30;5.20;;;3.60;;
63320;SDS011;49449;48.800;9.534;2023-08-01T07:17:58;4.65;;;3.58;;
63320;SDS011;49449;48.800;9.534;2023-08-01T07:20:26;7.78;;;4.22;;
63320;SDS011;49449;48.800;9.534;2023-08-01T07:22:54;4.68;;;3.67;;
63320;SDS011;49449;48.800;9.534;2023-08-01T07:25:23;6.63;;;4.00;;
63320;SDS011;49449;48.800;9.534;2023-08-01T07:27:51;4.45;;;3.22;;
63320;SDS011;49449;48.800;9.534;2023-08-01T07:30:19;5.35;;;3.47;;
63320;SDS011;49449;48.800;9.534;2023-08-01T07:32:47;4.65;;;3.35;;
63320;SDS011;49449;48.800;9.534;2023-08-01T07:35:14;4.95;;;3.50;;
63320;SDS011;49449;48.800;9.534;2023-08-01T07:37:42;5.28;;;3.75;;
63320;SDS011;49449;48.800;9.534;2023-08-01T07:40:10;7.13;;;3.28;;
63320;SDS011;49449;48.800;9.534;2023-08-01T07:42:40;4.65;;;3.42;;
63320;SDS011;49449;48.800;9.534;2023-08-01T07:45:08;6.70;;;3.85;;
63320;SDS011;49449;48.800;9.534;2023-08-01T07:47:36;3.65;;;3.28;;
63320;SDS011;49449;48.800;9.534;2023-08-01T07:50:04;6.40;;;3.40;;
63320;SDS011;49449;48.800;9.534;2023-08-01T07:52:33;5.47;;;3.55;;
63320;SDS011;49449;48.800;9.534;2023-08-01T07:55:01;4.60;;;3.40;;
63320;SDS011;49449;48.800;9.534;2023-08-01T07:57:28;5.75;;;4.15;;
63320;SDS011;49449;48.800;9.534;2023-08-01T07:59:57;4.10;;;3.25;;
63320;SDS011;49449;48.800;9.534;2023-08-01T08:02:25;5.95;;;3.90;;
63320;SDS011;49449;48.800;9.534;2023-08-01T08:04:53;5.68;;;3.83;;
63320;SDS011;49449;48.800;9.534;2023-08-01T08:07:21;5.63;;;3.60;;
63320;SDS011;49449;48.800;9.534;2023-08-01T08:09:48;5.13;;;3.70;;
63320;SDS011;49449;48.800;9.534;2023-08-01T08:12:16;5.95;;;3.95;;
63320;SDS011;49449;48.800;9.534;2023-08-01T08:14:44;5.88;;;4.00;;
63320;SDS011;49449;48.800;9.534;2023-08-01T08:17:13;5.03;;;3.67;;
63320;SDS011;49449;48.800;9.534;2023-08-01T08:19:41;5.55;;;3.58;;
63320;SDS011;49449;48.800;9.534;2023-08-01T08:22:09;4.55;;;3.53;;
63320;SDS011;49449;48.800;9.534;2023-08-01T08:24:36;6.15;;;3.85;;
63320;SDS011;49449;48.800;9.534;2023-08-01T08:27:04;4.82;;;4.05;;
63320;SDS011;49449;48.800;9.534;2023-08-01T08:29:33;4.75;;;3.58;;
63320;SDS011;49449;48.800;9.534;2023-08-01T08:32:00;6.78;;;4.10;;
63320;SDS011;49449;48.800;9.534;2023-08-01T08:34:29;5.10;;;3.38;;
63320;SDS011;49449;48.800;9.534;2023-08-01T08:36:58;7.38;;;4.32;;
63320;SDS011;49449;48.800;9.534;2023-08-01T08:39:26;5.10;;;3.50;;
63320;SDS011;49449;48.800;9.534;2023-08-01T08:41:53;4.78;;;3.22;;
63320;SDS011;49449;48.800;9.534;2023-08-01T08:44:21;5.88;;;3.80;;
63320;SDS011;49449;48.800;9.534;2023-08-01T08:46:51;5.22;;;3.30;;
63320;SDS011;49449;48.800;9.534;2023-08-01T08:49:20;5.43;;;3.38;;
63320;SDS011;49449;48.800;9.534;2023-08-01T08:51:50;5.38;;;3.67;;
63320;SDS011;49449;48.800;9.534;2023-08-01T08:54:18;5.50;;;3.47;;
63320;SDS011;49449;48.800;9.534;2023-08-01T08:56:47;4.32;;;3.40;;
63320;SDS011;49449;48.800;9.534;2023-08-01T08:59:15;4.55;;;3.15;;
63320;SDS011;49449;48.800;9.534;2023-08-01T09:01:43;5.43;;;3.53;;
63320;SDS011;49449;48.800;9.534;2023-08-01T09:04:12;8.05;;;3.30;;
63320;SDS011;49449;48.800;9.534;2023-08-01T09:06:42;5.93;;;3.47;;
63320;SDS011;49449;48.800;9.534;2023-08-01T09:09:15;4.80;;;3.10;;
63320;SDS011;49449;48.800;9.534;2023-08-01T09:11:45;4.93;;;3.30;;
63320;SDS011;49449;48.800;9.534;2023-08-01T09:14:14;4.93;;;3.20;;
63320;SDS011;49449;48.800;9.534;2023-08-01T09:16:42;4.82;;;3.05;;
63320;SDS011;49449;48.800;9.534;2023-08-01T09:19:11;5.28;;;3.10;;
63320;SDS011;49449;48.800;9.534;2023-08-01T09:21:44;4.57;;;2.90;;
63320;SDS011;49449;48.800;9.534;2023-08-01T09:24:16;4.35;;;2.95;;
63320;SDS011;49449;48.800;9.534;2023-08-01T09:26:45;3.95;;;3.15;;
63320;SDS011;49449;48.800;9.534;2023-08-01T09:29:15;3.40;;;2.72;;
63320;SDS011;49449;48.800;9.534;2023-08-01T09:31:44;3.55;;;3.17;;
63320;SDS011;49449;48.800;9.534;2023-08-01T09:34:17;3.30;;;2.78;;
63320;SDS011;49449;48.800;9.534;2023-08-01T09:36:47;4.00;;;3.35;;
63320;SDS011;49449;48.800;9.534;2023-08-01T09:39:17;4.22;;;2.80;;
63320;SDS011;49449;48.800;9.534;2023-08-01T09:41:46;4.72;;;3.10;;
63320;SDS011;49449;48.800;9.534;2023-08-01T09:44:15;4.65;;;2.75;;
63320;SDS011;49449;48.800;9.534;2023-08-01T09:46:54;2.53;;;2.00;;
63320;SDS011;49449;48.800;9.534;2023-08-01T09:49:22;3.70;;;2.58;;
63320;SDS011;49449;48.800;9.534;2023-08-01T09:51:50;4.72;;;2.55;;
63320;SDS011;49449;48.800;9.534;2023-08-01T09:54:20;3.33;;;2.40;;
63320;SDS011;49449;48.800;9.534;2023-08-01T09:56:49;4.20;;;2.40;;
63320;SDS011;49449;48.800;9.534;2023-08-01T09:59:18;2.40;;;2.10;;
63320;SDS011;49449;48.800;9.534;2023-08-01T10:01:48;2.85;;;2.20;;
63320;SDS011;49449;48.800;9.534;2023-08-01T10:04:18;2.47;;;2.03;;
63320;SDS011;49449;48.800;9.534;2023-08-01T10:06:49;2.42;;;2.22;;
63320;SDS011;49449;48.800;9.534;2023-08-01T10:09:23;2.10;;;1.90;;
63320;SDS011;49449;48.800;9.534;2023-08-01T10:11:51;2.10;;;1.67;;
63320;SDS011;49449;48.800;9.534;2023-08-01T10:14:19;2.35;;;2.08;;
63320;SDS011;49449;48.800;9.534;2023-08-01T10:16:47;3.65;;;1.95;;
63320;SDS011;49449;48.800;9.534;2023-08-01T10:19:18;4.15;;;1.80;;
63320;SDS011;49449;48.800;9.534;2023-08-01T10:21:47;1.70;;;1.60;;
63320;SDS011;49449;48.800;9.534;2023-08-01T10:24:15;2.67;;;1.70;;
63320;SDS011;49449;48.800;9.534;2023-08-01T10:26:46;2.53;;;1.40;;
63320;SDS011;49449;48.800;9.534;2023-08-01T10:29:14;1.70;;;1.60;;
63320;SDS011;49449;48.800;9.534;2023-08-01T10:31:50;1.95;;;1.73;;
63320;SDS011;49449;48.800;9.534;2023-08-01T10:34:18;1.25;;;1.23;;
63320;SDS011;49449;48.800;9.534;2023-08-01T10:36:54;1.67;;;1.58;;
63320;SDS011;49449;48.800;9.534;2023-08-01T10:39:22;1.45;;;1.30;;
63320;SDS011;49449;48.800;9.534;2023-08-01T10:41:58;2.88;;;1.40;;
63320;SDS011;49449;48.800;9.534;2023-08-01T10:44:26;1.83;;;1.42;;
63320;SDS011;49449;48.800;9.534;2023-08-01T10:46:58;2.65;;;1.55;;
63320;SDS011;49449;48.800;9.534;2023-08-01T10:49:33;1.40;;;1.30;;
63320;SDS011;49449;48.800;9.534;2023-08-01T10:52:03;1.45;;;1.08;;
63320;SDS011;49449;48.800;9.534;2023-08-01T10:54:42;1.40;;;1.30;;
63320;SDS011;49449;48.800;9.534;2023-08-01T10:57:16;1.77;;;1.40;;
63320;SDS011;49449;48.800;9.534;2023-08-01T10:59:45;1.92;;;1.42;;
63320;SDS011;49449;48.800;9.534;2023-08-01T11:02:19;1.42;;;1.30;;
63320;SDS011;49449;48.800;9.534;2023-08-01T11:04:57;1.42;;;1.33;;
63320;SDS011;49449;48.800;9.534;2023-08-01T11:07:26;1.48;;;1.38;;
63320;SDS011;49449;48.800;9.534;2023-08-01T11:10:02;1.52;;;1.42;;
63320;SDS011;49449;48.800;9.534;2023-08-01T11:12:34;1.40;;;1.30;;
63320;SDS011;49449;48.800;9.534;2023-08-01T11:15:05;2.15;;;1.25;;
63320;SDS011;49449;48.800;9.534;2023-08-01T11:17:35;1.95;;;1.40;;
63320;SDS011;49449;48.800;9.534;2023-08-01T11:20:04;2.15;;;1.30;;
63320;SDS011;49449;48.800;9.534;2023-08-01T11:22:33;2.38;;;1.30;;
63320;SDS011;49449;48.800;9.534;2023-08-01T11:25:01;1.27;;;1.17;;
63320;SDS011;49449;48.800;9.534;2023-08-01T11:27:29;1.50;;;1.27;;
63320;SDS011;49449;48.800;9.534;2023-08-01T11:29:59;1.77;;;1.05;;
63320;SDS011;49449;48.800;9.534;2023-08-01T11:32:32;1.02;;;0.98;;
63320;SDS011;49449;48.800;9.534;2023-08-01T11:35:01;1.17;;;1.08;;
63320;SDS011;49449;48.800;9.534;2023-08-01T11:37:29;1.17;;;0.90;;
63320;SDS011;49449;48.800;9.534;2023-08-01T11:39:58;1.42;;;1.00;;
63320;SDS011;49449;48.800;9.534;2023-08-01T11:42:30;1.10;;;1.10;;
63320;SDS011;49449;48.800;9.534;2023-08-01T11:45:10;2.25;;;1.20;;
63320;SDS011;49449;48.800;9.534;2023-08-01T11:47:44;1.38;;;1.27;;
63320;SDS011;49449;48.800;9.534;2023-08-01T11:50:12;0.98;;;0.80;;
63320;SDS011;49449;48.800;9.534;2023-08-01T11:52:40;0.80;;;0.80;;
63320;SDS011;49449;48.800;9.534;2023-08-01T11:55:17;1.00;;;0.95;;
63320;SDS011;49449;48.800;9.534;2023-08-01T11:57:51;1.10;;;0.90;;
63320;SDS011;49449;48.800;9.534;2023-08-01T12:00:24;1.33;;;1.10;;
63320;SDS011;49449;48.800;9.534;2023-08-01T12:03:02;1.25;;;1.05;;
63320;SDS011;49449;48.800;9.534;2023-08-01T12:05:32;1.55;;;1.00;;
63320;SDS011;49449;48.800;9.534;2023-08-01T12:08:10;1.33;;;1.23;;
63320;SDS011;49449;48.800;9.534;2023-08-01T12:10:38;0.80;;;0.80;;
63320;SDS011;49449;48.800;9.534;2023-08-01T12:13:18;2.00;;;1.15;;
63320;SDS011;49449;48.800;9.534;2023-08-01T12:15:48;1.10;;;1.10;;
63320;SDS011;49449;48.800;9.534;2023-08-01T12:18:19;1.33;;;1.23;;
63320;SDS011;49449;48.800;9.534;2023-08-01T12:23:27;1.27;;;1.17;;
63320;SDS011;49449;48.800;9.534;2023-08-01T12:25:54;1.25;;;1.17;;
63320;SDS011;49449;48.800;9.534;2023-08-01T12:28:22;2.10;;;1.38;;
63320;SDS011;49449;48.800;9.534;2023-08-01T12:30:51;1.20;;;0.98;;
63320;SDS011;49449;48.800;9.534;2023-08-01T12:33:19;1.77;;;1.33;;
63320;SDS011;49449;48.800;9.534;2023-08-01T12:35:48;2.28;;;1.40;;
63320;SDS011;49449;48.800;9.534;2023-08-01T12:38:16;1.10;;;1.00;;
63320;SDS011;49449;48.800;9.534;2023-08-01T12:40:44;1.52;;;1.40;;
63320;SDS011;49449;48.800;9.534;2023-08-01T12:43:13;1.25;;;1.15;;
63320;SDS011;49449;48.800;9.534;2023-08-01T12:45:42;1.35;;;1.25;;
63320;SDS011;49449;48.800;9.534;2023-08-01T12:48:12;1.08;;;1.08;;
63320;SDS011;49449;48.800;9.534;2023-08-01T12:50:43;1.20;;;1.10;;
63320;SDS011;49449;48.800;9.534;2023-08-01T12:53:11;1.10;;;1.10;;
63320;SDS011;49449;48.800;9.534;2023-08-01T12:55:42;2.85;;;1.50;;
63320;SDS011;49449;48.800;9.534;2023-08-01T12:58:10;1.17;;;1.10;;
63320;SDS011;49449;48.800;9.534;2023-08-01T13:00:38;1.27;;;1.13;;
63320;SDS011;49449;48.800;9.534;2023-08-01T13:03:06;1.33;;;1.20;;
63320;SDS011;49449;48.800;9.534;2023-08-01T13:05:37;1.05;;;1.05;;
63320;SDS011;49449;48.800;9.534;2023-08-01T13:08:05;1.55;;;1.30;;
63320;SDS011;49449;48.800;9.534;2023-08-01T13:10:33;1.23;;;1.17;;
63320;SDS011;49449;48.800;9.534;2023-08-01T13:13:02;1.90;;;1.10;;
63320;SDS011;49449;48.800;9.534;2023-08-01T13:15:30;1.30;;;1.20;;
63320;SDS011;49449;48.800;9.534;2023-08-01T13:17:58;1.50;;;1.40;;
63320;SDS011;49449;48.800;9.534;2023-08-01T13:20:26;1.83;;;1.30;;
63320;SDS011;49449;48.800;9.534;2023-08-01T13:22:56;2.35;;;1.55;;
63320;SDS011;49449;48.800;9.534;2023-08-01T13:25:24;1.33;;;1.23;;
63320;SDS011;49449;48.800;9.534;2023-08-01T13:27:52;1.45;;;1.35;;
63320;SDS011;49449;48.800;9.534;2023-08-01T13:30:20;1.70;;;1.38;;
63320;SDS011;49449;48.800;9.534;2023-08-01T13:32:48;3.17;;;1.58;;
63320;SDS011;49449;48.800;9.534;2023-08-01T13:35:16;1.98;;;1.63;;
63320;SDS011;49449;48.800;9.534;2023-08-01T13:37:43;1.33;;;1.23;;
63320;SDS011;49449;48.800;9.534;2023-08-01T13:40:13;1.75;;;1.33;;
63320;SDS011;49449;48.800;9.534;2023-08-01T13:42:40;1.10;;;1.10;;
63320;SDS011;49449;48.800;9.534;2023-08-01T13:45:08;1.80;;;1.30;;
63320;SDS011;49449;48.800;9.534;2023-08-01T13:47:37;1.73;;;1.63;;
63320;SDS011;49449;48.800;9.534;2023-08-01T13:50:04;1.45;;;1.23;;
63320;SDS011;49449;48.800;9.534;2023-08-01T13:52:33;1.30;;;1.20;;
63320;SDS011;49449;48.800;9.534;2023-08-01T13:55:00;2.78;;;1.65;;
63320;SDS011;49449;48.800;9.534;2023-08-01T13:57:30;1.58;;;1.42;;
63320;SDS011;49449;48.800;9.534;2023-08-01T13:59:58;3.13;;;1.58;;
63320;SDS011;49449;48.800;9.534;2023-08-01T14:02:35;1.42;;;1.33;;
63320;SDS011;49449;48.800;9.534;2023-08-01T14:05:03;1.58;;;1.48;;
63320;SDS011;49449;48.800;9.534;2023-08-01T14:07:34;2.58;;;1.67;;
63320;SDS011;49449;48.800;9.534;2023-08-01T14:10:02;2.08;;;1.30;;
63320;SDS011;49449;48.800;9.534;2023-08-01T14:12:32;1.40;;;1.30;;
63320;SDS011;49449;48.800;9.534;2023-08-01T14:14:59;1.58;;;1.40;;
63320;SDS011;49449;48.800;9.534;2023-08-01T14:17:27;1.63;;;1.30;;
63320;SDS011;49449;48.800;9.534;2023-08-01T14:19:55;2.17;;;1.52;;
63320;SDS011;49449;48.800;9.534;2023-08-01T14:22:23;1.73;;;1.38;;
63320;SDS011;49449;48.800;9.534;2023-08-01T14:24:51;2.50;;;1.75;;
63320;SDS011;49449;48.800;9.534;2023-08-01T14:27:19;2.17;;;1.48;;
63320;SDS011;49449;48.800;9.534;2023-08-01T14:29:48;2.88;;;1.45;;
63320;SDS011;49449;48.800;9.534;2023-08-01T14:32:17;1.58;;;1.33;;
63320;SDS011;49449;48.800;9.534;2023-08-01T14:34:46;1.33;;;1.17;;
63320;SDS011;49449;48.800;9.534;2023-08-01T14:37:14;1.42;;;1.27;;
63320;SDS011;49449;48.800;9.534;2023-08-01T14:39:41;1.50;;;1.40;;
63320;SDS011;49449;48.800;9.534;2023-08-01T14:42:09;1.88;;;1.20;;
63320;SDS011;49449;48.800;9.534;2023-08-01T14:44:37;2.13;;;1.40;;
63320;SDS011;49449;48.800;9.534;2023-08-01T14:47:06;3.42;;;1.40;;
63320;SDS011;49449;48.800;9.534;2023-08-01T14:49:34;1.48;;;1.38;;
63320;SDS011;49449;48.800;9.534;2023-08-01T14:52:03;1.50;;;1.38;;
63320;SDS011;49449;48.800;9.534;2023-08-01T14:54:31;1.95;;;1.20;;
63320;SDS011;49449;48.800;9.534;2023-08-01T14:57:05;2.78;;;1.48;;
63320;SDS011;49449;48.800;9.534;2023-08-01T14:59:33;1.20;;;1.20;;